sensor_id;sensor_type;location;lat;lon;timestamp;pressure;altitude;pressure_sealevel;temperature;humidity
60055;BME280;45930;53.514;55.904;2022-08-21T00:00:22;51792.97;;;-149.77;45.43
60055;BME280;45930;53.514;55.904;2022-08-21T00:01:26;51687.94;;;-149.77;45.32
60055;BME280;45930;53.514;55.904;2022-08-21T00:02:28;51525.41;;;-149.77;45.24
60055;BME280;45930;53.514;55.904;2022-08-21T00:03:29;51444.16;;;-149.77;45.17
60055;BME280;45930;53.514;55.904;2022-08-21T00:04:30;51521.44;;;-149.77;45.26
60055;BME280;45930;53.514;55.904;2022-08-21T00:05:33;51731.53;;;-149.77;45.41
60055;BME280;45930;53.514;55.904;2022-08-21T00:06:34;51933.72;;;-149.77;45.61
60055;BME280;45930;53.514;55.904;2022-08-21T00:07:35;52066.50;;;-149.77;45.72
60055;BME280;45930;53.514;55.904;2022-08-21T00:08:36;52207.25;;;-149.77;45.81
60055;BME280;45930;53.514;55.904;2022-08-21T00:09:37;52353.94;;;-149.77;45.94
60055;BME280;45930;53.514;55.904;2022-08-21T00:10:40;52589.84;;;-149.77;46.00
60055;BME280;45930;53.514;55.904;2022-08-21T00:11:41;52615.63;;;-149.77;46.08
60055;BME280;45930;53.514;55.904;2022-08-21T00:12:43;52494.69;;;-149.77;46.00
60055;BME280;45930;53.514;55.904;2022-08-21T00:13:44;52290.50;;;-149.77;45.83
60055;BME280;45930;53.514;55.904;2022-08-21T00:14:45;52284.56;;;-149.77;45.88
60055;BME280;45930;53.514;55.904;2022-08-21T00:15:47;52167.59;;;-149.77;45.76
60055;BME280;45930;53.514;55.904;2022-08-21T00:16:49;52246.91;;;-149.77;45.88
60055;BME280;45930;53.514;55.904;2022-08-21T00:17:49;52355.94;;;-149.77;45.98
60055;BME280;45930;53.514;55.904;2022-08-21T00:18:50;52631.47;;;-149.77;46.09
60055;BME280;45930;53.514;55.904;2022-08-21T00:19:51;52788.09;;;-149.77;46.27
60055;BME280;45930;53.514;55.904;2022-08-21T00:20:52;52801.97;;;-149.77;46.29
60055;BME280;45930;53.514;55.904;2022-08-21T00:21:54;52805.94;;;-149.77;46.24
60055;BME280;45930;53.514;55.904;2022-08-21T00:22:55;52685.00;;;-149.77;46.23
60055;BME280;45930;53.514;55.904;2022-08-21T00:23:56;52615.63;;;-149.77;46.19
60055;BME280;45930;53.514;55.904;2022-08-21T00:24:57;52677.09;;;-149.77;46.16
60055;BME280;45930;53.514;55.904;2022-08-21T00:25:58;52688.97;;;-149.77;46.16
60055;BME280;45930;53.514;55.904;2022-08-21T00:26:59;52724.66;;;-149.77;46.26
60055;BME280;45930;53.514;55.904;2022-08-21T00:28:00;52805.94;;;-149.77;46.33
60055;BME280;45930;53.514;55.904;2022-08-21T00:29:03;53033.94;;;-149.77;46.33
60055;BME280;45930;53.514;55.904;2022-08-21T00:30:05;53238.16;;;-149.77;46.49
60055;BME280;45930;53.514;55.904;2022-08-21T00:31:06;53371.00;;;-149.77;46.46
60055;BME280;45930;53.514;55.904;2022-08-21T00:32:07;53628.78;;;-149.77;46.64
60055;BME280;45930;53.514;55.904;2022-08-21T00:33:09;53864.78;;;-149.77;46.76
60055;BME280;45930;53.514;55.904;2022-08-21T00:34:11;54007.56;;;-149.77;46.74
60055;BME280;45930;53.514;55.904;2022-08-21T00:35:16;53948.06;;;-149.77;46.79
60055;BME280;45930;53.514;55.904;2022-08-21T00:36:17;54011.53;;;-149.77;46.82
60055;BME280;45930;53.514;55.904;2022-08-21T00:37:18;54150.34;;;-149.77;46.88
60055;BME280;45930;53.514;55.904;2022-08-21T00:38:19;54043.25;;;-149.77;46.86
60055;BME280;45930;53.514;55.904;2022-08-21T00:39:20;54049.22;;;-149.77;46.79
60055;BME280;45930;53.514;55.904;2022-08-21T00:40:25;54172.16;;;-149.77;46.89
60055;BME280;45930;53.514;55.904;2022-08-21T00:41:27;54156.31;;;-149.77;46.86
60055;BME280;45930;53.514;55.904;2022-08-21T00:42:29;54322.91;;;-149.77;46.94
60055;BME280;45930;53.514;55.904;2022-08-21T00:43:32;54539.09;;;-149.77;46.96
60055;BME280;45930;53.514;55.904;2022-08-21T00:44:33;54471.66;;;-149.77;46.93
60055;BME280;45930;53.514;55.904;2022-08-21T00:45:34;54574.78;;;-149.77;47.04
60055;BME280;45930;53.514;55.904;2022-08-21T00:46:36;54666.03;;;-149.77;47.04
60055;BME280;45930;53.514;55.904;2022-08-21T00:47:37;54844.56;;;-149.77;47.07
60055;BME280;45930;53.514;55.904;2022-08-21T00:48:38;54802.91;;;-149.77;47.06
60055;BME280;45930;53.514;55.904;2022-08-21T00:49:39;54598.59;;;-149.77;47.00
60055;BME280;45930;53.514;55.904;2022-08-21T00:50:48;54430.00;;;-149.77;46.97
60055;BME280;45930;53.514;55.904;2022-08-21T00:51:53;54150.34;;;-149.77;46.86
60055;BME280;45930;53.514;55.904;2022-08-21T00:52:56;53805.28;;;-149.77;46.71
60055;BME280;45930;53.514;55.904;2022-08-21T00:53:59;53670.44;;;-149.77;46.65
60055;BME280;45930;53.514;55.904;2022-08-21T00:55:02;53313.50;;;-149.77;46.58
60055;BME280;45930;53.514;55.904;2022-08-21T00:56:05;53307.56;;;-149.77;46.50
60055;BME280;45930;53.514;55.904;2022-08-21T00:57:13;53141.00;;;-149.77;46.39
60055;BME280;45930;53.514;55.904;2022-08-21T00:58:15;52885.25;;;-149.77;46.38
60055;BME280;45930;53.514;55.904;2022-08-21T00:59:19;52798.00;;;-149.77;46.26
60055;BME280;45930;53.514;55.904;2022-08-21T01:00:31;52597.78;;;-149.77;46.19
60055;BME280;45930;53.514;55.904;2022-08-21T01:01:32;52385.66;;;-149.77;46.01
60055;BME280;45930;53.514;55.904;2022-08-21T01:02:33;52344.03;;;-149.77;46.03
60055;BME280;45930;53.514;55.904;2022-08-21T01:03:35;52457.03;;;-149.77;46.11
60055;BME280;45930;53.514;55.904;2022-08-21T01:04:36;52346.00;;;-149.77;46.12
60055;BME280;45930;53.514;55.904;2022-08-21T01:05:38;52437.19;;;-149.77;46.13
60055;BME280;45930;53.514;55.904;2022-08-21T01:06:39;52427.28;;;-149.77;46.14
60055;BME280;45930;53.514;55.904;2022-08-21T01:07:41;52506.59;;;-149.77;46.18
60055;BME280;45930;53.514;55.904;2022-08-21T01:08:42;52631.47;;;-149.77;46.21
60055;BME280;45930;53.514;55.904;2022-08-21T01:09:46;52792.06;;;-149.77;46.25
60055;BME280;45930;53.514;55.904;2022-08-21T01:10:47;53085.50;;;-149.77;46.47
60055;BME280;45930;53.514;55.904;2022-08-21T01:11:49;53127.13;;;-149.77;46.50
60055;BME280;45930;53.514;55.904;2022-08-21T01:12:52;53105.31;;;-149.77;46.36
60055;BME280;45930;53.514;55.904;2022-08-21T01:13:53;53184.63;;;-149.77;46.49
60055;BME280;45930;53.514;55.904;2022-08-21T01:14:55;53119.19;;;-149.77;46.45
60055;BME280;45930;53.514;55.904;2022-08-21T01:15:58;52976.44;;;-149.77;46.41
60055;BME280;45930;53.514;55.904;2022-08-21T01:17:01;53073.59;;;-149.77;46.41
60055;BME280;45930;53.514;55.904;2022-08-21T01:18:05;52940.75;;;-149.77;46.35
60055;BME280;45930;53.514;55.904;2022-08-21T01:19:08;52982.41;;;-149.77;46.44
60055;BME280;45930;53.514;55.904;2022-08-21T01:20:11;53026.00;;;-149.77;46.44
60055;BME280;45930;53.514;55.904;2022-08-21T01:21:21;53045.84;;;-149.77;46.43
60055;BME280;45930;53.514;55.904;2022-08-21T01:22:22;53018.09;;;-149.77;46.40
60055;BME280;45930;53.514;55.904;2022-08-21T01:23:23;53139.03;;;-149.77;46.43
60055;BME280;45930;53.514;55.904;2022-08-21T01:24:24;53166.78;;;-149.77;46.46
60055;BME280;45930;53.514;55.904;2022-08-21T01:25:25;53051.78;;;-149.77;46.43
60055;BME280;45930;53.514;55.904;2022-08-21T01:26:30;53083.50;;;-149.77;46.43
60055;BME280;45930;53.514;55.904;2022-08-21T01:27:32;53097.41;;;-149.77;46.46
60055;BME280;45930;53.514;55.904;2022-08-21T01:28:36;53353.16;;;-149.77;46.56
60055;BME280;45930;53.514;55.904;2022-08-21T01:31:06;53478.09;;;-149.77;46.58
60055;BME280;45930;53.514;55.904;2022-08-21T01:32:15;53529.66;;;-149.77;46.68
60055;BME280;45930;53.514;55.904;2022-08-21T01:33:22;53220.31;;;-149.77;46.49
60055;BME280;45930;53.514;55.904;2022-08-21T01:34:24;52807.94;;;-149.77;46.27
60055;BME280;45930;53.514;55.904;2022-08-21T01:35:25;52520.47;;;-149.77;46.16
60055;BME280;45930;53.514;55.904;2022-08-21T01:36:26;52387.66;;;-149.77;45.99
60055;BME280;45930;53.514;55.904;2022-08-21T01:37:27;52254.81;;;-149.77;45.99
60055;BME280;45930;53.514;55.904;2022-08-21T01:38:28;52355.94;;;-149.77;46.06
60055;BME280;45930;53.514;55.904;2022-08-21T01:39:29;52397.56;;;-149.77;46.11
60055;BME280;45930;53.514;55.904;2022-08-21T01:40:30;52468.91;;;-149.77;46.08
60055;BME280;45930;53.514;55.904;2022-08-21T01:41:30;52254.81;;;-149.77;45.97
60055;BME280;45930;53.514;55.904;2022-08-21T01:42:32;52066.50;;;-149.77;45.86
60055;BME280;45930;53.514;55.904;2022-08-21T01:43:33;51919.84;;;-149.77;45.66
60055;BME280;45930;53.514;55.904;2022-08-21T01:44:34;51902.00;;;-149.77;45.71
60055;BME280;45930;53.514;55.904;2022-08-21T01:45:35;51913.88;;;-149.77;45.71
60055;BME280;45930;53.514;55.904;2022-08-21T01:46:36;51937.69;;;-149.77;45.74
60055;BME280;45930;53.514;55.904;2022-08-21T01:47:37;52028.84;;;-149.77;45.78
60055;BME280;45930;53.514;55.904;2022-08-21T01:48:39;52153.72;;;-149.77;45.90
60055;BME280;45930;53.514;55.904;2022-08-21T01:49:40;52397.56;;;-149.77;46.00
60055;BME280;45930;53.514;55.904;2022-08-21T01:50:42;52651.31;;;-149.77;46.14
60055;BME280;45930;53.514;55.904;2022-08-21T01:51:43;52907.06;;;-149.77;46.24
60055;BME280;45930;53.514;55.904;2022-08-21T01:52:44;53043.84;;;-149.77;46.29
60055;BME280;45930;53.514;55.904;2022-08-21T01:53:45;53168.78;;;-149.77;46.40
60055;BME280;45930;53.514;55.904;2022-08-21T01:54:45;53335.31;;;-149.77;46.43
60055;BME280;45930;53.514;55.904;2022-08-21T01:55:46;53553.44;;;-149.77;46.48
60055;BME280;45930;53.514;55.904;2022-08-21T01:56:50;53618.88;;;-149.77;46.51
60055;BME280;45930;53.514;55.904;2022-08-21T01:57:51;53658.53;;;-149.77;46.58
60055;BME280;45930;53.514;55.904;2022-08-21T01:58:52;53694.22;;;-149.77;46.49
60055;BME280;45930;53.514;55.904;2022-08-21T01:59:53;53454.28;;;-149.77;46.43
60055;BME280;45930;53.514;55.904;2022-08-21T02:00:54;53184.63;;;-149.77;46.33
60055;BME280;45930;53.514;55.904;2022-08-21T02:01:55;52958.59;;;-149.77;46.18
60055;BME280;45930;53.514;55.904;2022-08-21T02:02:56;52748.44;;;-149.77;46.07
60055;BME280;45930;53.514;55.904;2022-08-21T02:03:57;52710.78;;;-149.77;45.99
60055;BME280;45930;53.514;55.904;2022-08-21T02:04:59;52625.53;;;-149.77;45.94
60055;BME280;45930;53.514;55.904;2022-08-21T02:06:00;52611.66;;;-149.77;45.94
60055;BME280;45930;53.514;55.904;2022-08-21T02:07:01;52597.78;;;-149.77;45.90
60055;BME280;45930;53.514;55.904;2022-08-21T02:08:02;52522.44;;;-149.77;45.76
60055;BME280;45930;53.514;55.904;2022-08-21T02:09:04;52401.53;;;-149.77;45.75
60055;BME280;45930;53.514;55.904;2022-08-21T02:10:07;52357.91;;;-149.77;45.95
60055;BME280;45930;53.514;55.904;2022-08-21T02:11:09;52423.31;;;-149.77;45.79
60055;BME280;45930;53.514;55.904;2022-08-21T02:12:11;52518.47;;;-149.77;45.80
60055;BME280;45930;53.514;55.904;2022-08-21T02:13:12;52514.53;;;-149.77;45.81
60055;BME280;45930;53.514;55.904;2022-08-21T02:14:14;52496.69;;;-149.77;45.74
60055;BME280;45930;53.514;55.904;2022-08-21T02:15:15;52687.00;;;-149.77;45.88
60055;BME280;45930;53.514;55.904;2022-08-21T02:16:16;52611.66;;;-149.77;45.79
60055;BME280;45930;53.514;55.904;2022-08-21T02:17:20;52603.72;;;-149.77;45.81
60055;BME280;45930;53.514;55.904;2022-08-21T02:18:21;52617.59;;;-149.77;45.71
60055;BME280;45930;53.514;55.904;2022-08-21T02:19:22;52766.28;;;-149.77;45.84
60055;BME280;45930;53.514;55.904;2022-08-21T02:20:27;52774.22;;;-149.77;45.86
60055;BME280;45930;53.514;55.904;2022-08-21T02:21:28;52736.56;;;-149.77;45.74
60055;BME280;45930;53.514;55.904;2022-08-21T02:22:29;52805.94;;;-149.77;45.74
60055;BME280;45930;53.514;55.904;2022-08-21T02:23:30;52807.94;;;-149.77;45.89
60055;BME280;45930;53.514;55.904;2022-08-21T02:24:31;52625.53;;;-149.77;45.76
60055;BME280;45930;53.514;55.904;2022-08-21T02:25:32;52609.69;;;-149.77;45.79
60055;BME280;45930;53.514;55.904;2022-08-21T02:26:33;52508.56;;;-149.77;45.71
60055;BME280;45930;53.514;55.904;2022-08-21T02:27:42;52556.16;;;-149.77;45.70
60055;BME280;45930;53.514;55.904;2022-08-21T02:28:43;52532.34;;;-149.77;45.58
60055;BME280;45930;53.514;55.904;2022-08-21T02:29:44;52627.53;;;-149.77;45.63
60055;BME280;45930;53.514;55.904;2022-08-21T02:30:47;52889.22;;;-149.77;45.84
60055;BME280;45930;53.514;55.904;2022-08-21T02:31:48;52992.31;;;-149.77;45.73
60055;BME280;45930;53.514;55.904;2022-08-21T02:32:49;52903.09;;;-149.77;45.81
60055;BME280;45930;53.514;55.904;2022-08-21T02:33:51;52877.31;;;-149.77;45.71
60055;BME280;45930;53.514;55.904;2022-08-21T02:34:51;52805.94;;;-149.77;45.79
60055;BME280;45930;53.514;55.904;2022-08-21T02:35:53;52913.00;;;-149.77;45.79
60055;BME280;45930;53.514;55.904;2022-08-21T02:36:54;53039.91;;;-149.77;45.68
60055;BME280;45930;53.514;55.904;2022-08-21T02:38:03;53043.84;;;-149.77;45.68
60055;BME280;45930;53.514;55.904;2022-08-21T02:39:04;53109.28;;;-149.77;45.74
60055;BME280;45930;53.514;55.904;2022-08-21T02:40:05;53182.66;;;-149.77;45.86
60055;BME280;45930;53.514;55.904;2022-08-21T02:41:09;53254.03;;;-149.77;45.74
60055;BME280;45930;53.514;55.904;2022-08-21T02:42:10;53321.44;;;-149.77;45.79
60055;BME280;45930;53.514;55.904;2022-08-21T02:43:11;53271.88;;;-149.77;45.74
60055;BME280;45930;53.514;55.904;2022-08-21T02:44:12;53107.31;;;-149.77;45.74
60055;BME280;45930;53.514;55.904;2022-08-21T02:45:14;52913.00;;;-149.77;45.56
60055;BME280;45930;53.514;55.904;2022-08-21T02:46:17;52968.53;;;-149.77;45.76
60055;BME280;45930;53.514;55.904;2022-08-21T02:47:19;52918.94;;;-149.77;45.52
60055;BME280;45930;53.514;55.904;2022-08-21T02:48:22;52718.72;;;-149.77;45.53
60055;BME280;45930;53.514;55.904;2022-08-21T02:49:23;52492.72;;;-149.77;45.18
60055;BME280;45930;53.514;55.904;2022-08-21T02:50:30;52377.72;;;-149.77;45.26
60055;BME280;45930;53.514;55.904;2022-08-21T02:51:31;52272.66;;;-149.77;45.15
60055;BME280;45930;53.514;55.904;2022-08-21T02:52:32;52330.16;;;-149.77;45.10
60055;BME280;45930;53.514;55.904;2022-08-21T02:53:35;52355.94;;;-149.77;45.01
60055;BME280;45930;53.514;55.904;2022-08-21T02:54:36;52457.03;;;-149.77;45.07
60055;BME280;45930;53.514;55.904;2022-08-21T02:55:37;52512.53;;;-149.77;45.26
60055;BME280;45930;53.514;55.904;2022-08-21T02:56:38;52451.09;;;-149.77;44.96
60055;BME280;45930;53.514;55.904;2022-08-21T02:57:39;52480.81;;;-149.77;45.12
60055;BME280;45930;53.514;55.904;2022-08-21T02:58:44;52482.81;;;-149.77;45.16
60055;BME280;45930;53.514;55.904;2022-08-21T02:59:45;52441.16;;;-149.77;45.13
60055;BME280;45930;53.514;55.904;2022-08-21T03:00:47;52433.25;;;-149.77;45.18
60055;BME280;45930;53.514;55.904;2022-08-21T03:01:48;52419.38;;;-149.77;45.02
60055;BME280;45930;53.514;55.904;2022-08-21T03:02:52;52482.81;;;-149.77;44.85
60055;BME280;45930;53.514;55.904;2022-08-21T03:03:53;52570.03;;;-149.77;45.11
60055;BME280;45930;53.514;55.904;2022-08-21T03:04:54;52597.78;;;-149.77;45.03
60055;BME280;45930;53.514;55.904;2022-08-21T03:05:55;52744.50;;;-149.77;44.91
60055;BME280;45930;53.514;55.904;2022-08-21T03:06:56;52916.97;;;-149.77;45.20
60055;BME280;45930;53.514;55.904;2022-08-21T03:07:58;52984.38;;;-149.77;45.04
60055;BME280;45930;53.514;55.904;2022-08-21T03:08:59;52911.03;;;-149.77;44.97
60055;BME280;45930;53.514;55.904;2022-08-21T03:10:00;52907.06;;;-149.77;45.00
60055;BME280;45930;53.514;55.904;2022-08-21T03:11:01;53014.13;;;-149.77;45.08
60055;BME280;45930;53.514;55.904;2022-08-21T03:12:02;53216.34;;;-149.77;45.20
60055;BME280;45930;53.514;55.904;2022-08-21T03:13:04;53495.94;;;-149.77;45.30
60055;BME280;45930;53.514;55.904;2022-08-21T03:14:04;53714.06;;;-149.77;45.23
60055;BME280;45930;53.514;55.904;2022-08-21T03:15:08;53801.31;;;-149.77;45.30
60055;BME280;45930;53.514;55.904;2022-08-21T03:16:09;53850.91;;;-149.77;45.39
60055;BME280;45930;53.514;55.904;2022-08-21T03:17:10;53967.91;;;-149.77;45.45
60055;BME280;45930;53.514;55.904;2022-08-21T03:18:12;54003.59;;;-149.77;45.37
60055;BME280;45930;53.514;55.904;2022-08-21T03:19:12;53813.22;;;-149.77;45.16
60055;BME280;45930;53.514;55.904;2022-08-21T03:20:15;53670.44;;;-149.77;45.15
60055;BME280;45930;53.514;55.904;2022-08-21T03:21:17;53684.31;;;-149.77;45.08
60055;BME280;45930;53.514;55.904;2022-08-21T03:22:19;53963.94;;;-149.77;45.20
60055;BME280;45930;53.514;55.904;2022-08-21T03:23:20;53823.13;;;-149.77;45.07
60055;BME280;45930;53.514;55.904;2022-08-21T03:24:21;53612.94;;;-149.77;45.09
60055;BME280;45930;53.514;55.904;2022-08-21T03:25:24;53692.25;;;-149.77;45.06
60055;BME280;45930;53.514;55.904;2022-08-21T03:26:25;54015.50;;;-149.77;45.11
60055;BME280;45930;53.514;55.904;2022-08-21T03:27:27;54047.22;;;-149.77;45.11
60055;BME280;45930;53.514;55.904;2022-08-21T03:28:28;53979.81;;;-149.77;45.00
60055;BME280;45930;53.514;55.904;2022-08-21T03:29:29;53991.69;;;-149.77;45.01
60055;BME280;45930;53.514;55.904;2022-08-21T03:30:30;54055.16;;;-149.77;45.07
60055;BME280;45930;53.514;55.904;2022-08-21T03:31:31;54568.84;;;-149.77;45.22
60055;BME280;45930;53.514;55.904;2022-08-21T03:32:33;55219.47;;;-149.77;45.38
60055;BME280;45930;53.514;55.904;2022-08-21T03:33:33;55042.91;;;-149.77;45.32
60055;BME280;45930;53.514;55.904;2022-08-21T03:34:36;54953.66;;;-149.77;45.21
60055;BME280;45930;53.514;55.904;2022-08-21T03:35:37;54852.47;;;-149.77;45.23
60055;BME280;45930;53.514;55.904;2022-08-21T03:36:37;54854.47;;;-149.77;45.16
60055;BME280;45930;53.514;55.904;2022-08-21T03:37:39;54531.16;;;-149.77;45.22
60055;BME280;45930;53.514;55.904;2022-08-21T03:38:39;54789.00;;;-149.77;45.08
60055;BME280;45930;53.514;55.904;2022-08-21T03:39:40;54199.94;;;-149.77;44.95
60055;BME280;45930;53.514;55.904;2022-08-21T03:40:42;54086.88;;;-149.77;44.81
60055;BME280;45930;53.514;55.904;2022-08-21T03:41:43;54424.06;;;-149.77;44.94
60055;BME280;45930;53.514;55.904;2022-08-21T03:42:45;54568.84;;;-149.77;45.02
60055;BME280;45930;53.514;55.904;2022-08-21T03:43:47;54477.59;;;-149.77;45.08
60055;BME280;45930;53.514;55.904;2022-08-21T03:44:48;54305.06;;;-149.77;44.84
60055;BME280;45930;53.514;55.904;2022-08-21T03:45:49;53722.00;;;-149.77;44.63
60055;BME280;45930;53.514;55.904;2022-08-21T03:46:50;53331.34;;;-149.77;44.46
60055;BME280;45930;53.514;55.904;2022-08-21T03:47:57;53313.50;;;-149.77;44.23
60055;BME280;45930;53.514;55.904;2022-08-21T03:48:59;52857.50;;;-149.77;44.11
60055;BME280;45930;53.514;55.904;2022-08-21T03:49:59;53718.03;;;-149.77;44.51
60055;BME280;45930;53.514;55.904;2022-08-21T03:51:00;52863.44;;;-149.77;44.01
60055;BME280;45930;53.514;55.904;2022-08-21T03:52:02;52663.19;;;-149.77;43.88
60055;BME280;45930;53.514;55.904;2022-08-21T03:53:03;52357.91;;;-149.77;43.65
60055;BME280;45930;53.514;55.904;2022-08-21T03:54:04;52457.03;;;-149.77;43.88
60055;BME280;45930;53.514;55.904;2022-08-21T03:55:05;52681.03;;;-149.77;43.71
60055;BME280;45930;53.514;55.904;2022-08-21T03:56:07;52655.28;;;-149.77;43.67
60055;BME280;45930;53.514;55.904;2022-08-21T03:57:08;52544.25;;;-149.77;43.78
60055;BME280;45930;53.514;55.904;2022-08-21T03:58:09;52028.84;;;-149.77;43.43
60055;BME280;45930;53.514;55.904;2022-08-21T03:59:10;51953.53;;;-149.77;43.15
60055;BME280;45930;53.514;55.904;2022-08-21T04:00:13;51870.28;;;-149.77;43.14
60055;BME280;45930;53.514;55.904;2022-08-21T04:01:14;51739.47;;;-149.77;42.85
60055;BME280;45930;53.514;55.904;2022-08-21T04:02:17;51929.75;;;-149.77;43.09
60055;BME280;45930;53.514;55.904;2022-08-21T04:03:20;51826.69;;;-149.77;43.10
60055;BME280;45930;53.514;55.904;2022-08-21T04:04:21;51804.88;;;-149.77;43.15
60055;BME280;45930;53.514;55.904;2022-08-21T04:05:22;51475.88;;;-149.77;42.75
60055;BME280;45930;53.514;55.904;2022-08-21T04:06:28;51406.50;;;-149.77;42.52
60055;BME280;45930;53.514;55.904;2022-08-21T04:07:29;51325.25;;;-149.77;42.70
60055;BME280;45930;53.514;55.904;2022-08-21T04:08:30;51569.00;;;-149.77;42.87
60055;BME280;45930;53.514;55.904;2022-08-21T04:09:31;51592.81;;;-149.77;42.70
60055;BME280;45930;53.514;55.904;2022-08-21T04:10:33;51452.09;;;-149.77;42.51
60055;BME280;45930;53.514;55.904;2022-08-21T04:11:35;51343.09;;;-149.77;42.41
60055;BME280;45930;53.514;55.904;2022-08-21T04:12:35;51394.59;;;-149.77;42.68
60055;BME280;45930;53.514;55.904;2022-08-21T04:13:37;51505.59;;;-149.77;42.50
60055;BME280;45930;53.514;55.904;2022-08-21T04:14:38;51414.44;;;-149.77;42.35
60055;BME280;45930;53.514;55.904;2022-08-21T04:15:39;51541.28;;;-149.77;42.70
60055;BME280;45930;53.514;55.904;2022-08-21T04:16:42;51598.75;;;-149.77;42.48
60055;BME280;45930;53.514;55.904;2022-08-21T04:17:43;51656.22;;;-149.77;42.53
60055;BME280;45930;53.514;55.904;2022-08-21T04:18:43;51616.59;;;-149.77;42.66
60055;BME280;45930;53.514;55.904;2022-08-21T04:19:45;51505.59;;;-149.77;42.56
60055;BME280;45930;53.514;55.904;2022-08-21T04:20:48;51311.38;;;-149.77;42.40
60055;BME280;45930;53.514;55.904;2022-08-21T04:21:50;51404.53;;;-149.77;42.32
60055;BME280;45930;53.514;55.904;2022-08-21T04:22:50;51412.44;;;-149.77;42.27
60055;BME280;45930;53.514;55.904;2022-08-21T04:23:54;51497.66;;;-149.77;42.49
60055;BME280;45930;53.514;55.904;2022-08-21T04:24:55;51656.22;;;-149.77;42.53
60055;BME280;45930;53.514;55.904;2022-08-21T04:25:56;51432.25;;;-149.77;42.29
60055;BME280;45930;53.514;55.904;2022-08-21T04:26:57;51993.19;;;-149.77;42.75
60055;BME280;45930;53.514;55.904;2022-08-21T04:27:58;52026.88;;;-149.77;42.98
60055;BME280;45930;53.514;55.904;2022-08-21T04:28:59;51921.81;;;-149.77;42.78
60055;BME280;45930;53.514;55.904;2022-08-21T04:29:59;51608.66;;;-149.77;42.57
60055;BME280;45930;53.514;55.904;2022-08-21T04:31:01;51576.94;;;-149.77;42.62
60055;BME280;45930;53.514;55.904;2022-08-21T04:32:02;51529.38;;;-149.77;42.51
60055;BME280;45930;53.514;55.904;2022-08-21T04:33:06;51672.06;;;-149.77;42.19
60055;BME280;45930;53.514;55.904;2022-08-21T04:34:07;51565.06;;;-149.77;42.47
60055;BME280;45930;53.514;55.904;2022-08-21T04:35:10;51172.66;;;-149.77;41.99
60055;BME280;45930;53.514;55.904;2022-08-21T04:36:11;51200.38;;;-149.77;41.81
60055;BME280;45930;53.514;55.904;2022-08-21T04:37:12;51164.72;;;-149.77;41.89
60055;BME280;45930;53.514;55.904;2022-08-21T04:38:15;50996.28;;;-149.77;41.49
60055;BME280;45930;53.514;55.904;2022-08-21T04:39:16;50917.00;;;-149.77;41.48
60055;BME280;45930;53.514;55.904;2022-08-21T04:40:19;50928.91;;;-149.77;41.46
60055;BME280;45930;53.514;55.904;2022-08-21T04:41:20;50922.94;;;-149.77;41.32
60055;BME280;45930;53.514;55.904;2022-08-21T04:42:20;50685.16;;;-149.77;41.01
60055;BME280;45930;53.514;55.904;2022-08-21T04:43:21;50528.63;;;-149.77;40.79
60055;BME280;45930;53.514;55.904;2022-08-21T04:44:23;50538.53;;;-149.77;40.77
60055;BME280;45930;53.514;55.904;2022-08-21T04:45:30;50496.94;;;-149.77;40.44
60055;BME280;45930;53.514;55.904;2022-08-21T04:46:31;50471.16;;;-149.77;40.49
60055;BME280;45930;53.514;55.904;2022-08-21T04:47:32;50437.47;;;-149.77;40.31
60055;BME280;45930;53.514;55.904;2022-08-21T04:48:33;50284.91;;;-149.77;40.07
60055;BME280;45930;53.514;55.904;2022-08-21T04:49:33;50368.13;;;-149.77;40.16
60055;BME280;45930;53.514;55.904;2022-08-21T04:51:47;50455.31;;;-149.77;40.44
60055;BME280;45930;53.514;55.904;2022-08-21T04:52:48;50374.09;;;-149.77;40.13
60055;BME280;45930;53.514;55.904;2022-08-21T04:53:51;50265.09;;;-149.77;39.74
60055;BME280;45930;53.514;55.904;2022-08-21T04:54:52;50207.66;;;-149.77;39.53
60055;BME280;45930;53.514;55.904;2022-08-21T04:55:54;50261.16;;;-149.77;39.98
60055;BME280;45930;53.514;55.904;2022-08-21T04:57:00;50292.84;;;-149.77;39.91
60055;BME280;45930;53.514;55.904;2022-08-21T04:58:06;50247.28;;;-149.77;39.68
60055;BME280;45930;53.514;55.904;2022-08-21T04:59:24;50229.44;;;-149.77;39.72
60055;BME280;45930;53.514;55.904;2022-08-21T05:00:26;50304.72;;;-149.77;39.83
60055;BME280;45930;53.514;55.904;2022-08-21T05:01:29;50249.25;;;-149.77;39.75
60055;BME280;45930;53.514;55.904;2022-08-21T05:02:30;50187.84;;;-149.77;39.46
60055;BME280;45930;53.514;55.904;2022-08-21T05:03:34;50108.59;;;-149.77;39.52
60055;BME280;45930;53.514;55.904;2022-08-21T05:04:40;50154.16;;;-149.77;39.60
60055;BME280;45930;53.514;55.904;2022-08-21T05:05:43;50221.53;;;-149.77;39.33
60055;BME280;45930;53.514;55.904;2022-08-21T05:06:45;50193.78;;;-149.77;39.35
60055;BME280;45930;53.514;55.904;2022-08-21T05:07:50;50146.22;;;-149.77;39.25
60055;BME280;45930;53.514;55.904;2022-08-21T05:08:55;50106.59;;;-149.77;39.43
60055;BME280;45930;53.514;55.904;2022-08-21T05:09:56;50181.91;;;-149.77;39.53
60055;BME280;45930;53.514;55.904;2022-08-21T05:10:57;50201.72;;;-149.77;39.24
60055;BME280;45930;53.514;55.904;2022-08-21T05:12:00;50217.56;;;-149.77;39.48
60055;BME280;45930;53.514;55.904;2022-08-21T05:13:02;50027.34;;;-149.77;38.71
60055;BME280;45930;53.514;55.904;2022-08-21T05:14:03;50017.44;;;-149.77;38.70
60055;BME280;45930;53.514;55.904;2022-08-21T05:15:05;50011.50;;;-149.77;38.64
60055;BME280;45930;53.514;55.904;2022-08-21T05:16:06;49967.94;;;-149.77;38.30
60055;BME280;45930;53.514;55.904;2022-08-21T05:17:06;49944.16;;;-149.77;38.31
60055;BME280;45930;53.514;55.904;2022-08-21T05:18:08;49971.88;;;-149.77;38.50